createdAt,value
2017-12-08T00:00:16.996Z,1003.33
2017-12-08T00:01:38.615Z,1003.28
2017-12-08T00:02:59.992Z,1003.24
2017-12-08T00:04:22.175Z,1003.22
2017-12-08T00:05:43.549Z,1003.23
2017-12-08T00:07:05.471Z,1003.26
2017-12-08T00:08:27.638Z,1003.22
2017-12-08T00:09:49.602Z,1003.35
2017-12-08T00:11:11.506Z,1003.28
2017-12-08T00:12:33.168Z,1003.32
2017-12-08T00:13:54.801Z,1003.36
2017-12-08T00:15:16.711Z,1003.4
2017-12-08T00:16:38.386Z,1003.47
2017-12-08T00:18:00.045Z,1003.43
2017-12-08T00:19:21.516Z,1003.41
2017-12-08T00:20:43.154Z,1003.42
2017-12-08T00:22:04.796Z,1003.48
2017-12-08T00:23:26.228Z,1003.47
2017-12-08T00:24:48.139Z,1003.43
2017-12-08T00:26:09.796Z,1003.43
2017-12-08T00:27:31.445Z,1003.45
2017-12-08T00:28:52.931Z,1003.36
2017-12-08T00:30:14.826Z,1003.38
2017-12-08T00:31:36.095Z,1003.34
2017-12-08T00:32:57.749Z,1003.34
2017-12-08T00:34:19.159Z,1003.3
2017-12-08T00:35:41.319Z,1003.32
2017-12-08T00:37:03.075Z,1003.35
2017-12-08T00:38:24.655Z,1003.26
2017-12-08T00:39:46.656Z,1003.27
2017-12-08T00:41:08.906Z,1003.26
2017-12-08T00:42:31.096Z,1003.26
2017-12-08T00:43:52.508Z,1003.29
2017-12-08T00:45:14.162Z,1003.32
2017-12-08T00:46:35.570Z,1003.3
2017-12-08T00:47:57.499Z,1003.26
2017-12-08T00:49:18.639Z,1003.29
2017-12-08T00:50:40.389Z,1003.26
2017-12-08T00:52:02.411Z,1003.25
2017-12-08T00:53:24.642Z,1003.24
2017-12-08T00:54:46.355Z,1003.28
2017-12-08T00:56:07.994Z,1003.27
2017-12-08T00:57:29.914Z,1003.23
2017-12-08T00:58:51.566Z,1003.21
2017-12-08T01:00:13.535Z,1003.22
2017-12-08T01:01:35.443Z,1003.24
2017-12-08T01:02:56.798Z,1003.2
2017-12-08T01:04:19.076Z,1003.21
2017-12-08T01:05:41.007Z,1003.23
2017-12-08T01:07:02.920Z,1003.17
2017-12-08T01:08:24.416Z,1003.18
2017-12-08T01:09:46.042Z,1003.28
2017-12-08T01:11:07.946Z,1003.28
2017-12-08T01:12:29.652Z,1003.29
2017-12-08T01:13:51.068Z,1003.22
2017-12-08T01:15:12.716Z,1003.31
2017-12-08T01:16:34.880Z,1003.22
2017-12-08T01:17:56.309Z,1003.23
2017-12-08T01:19:18.214Z,1003.23
2017-12-08T01:20:39.584Z,1003.25
2017-12-08T01:22:01.328Z,1003.21
2017-12-08T01:23:22.966Z,1003.21
2017-12-08T01:24:44.626Z,1003.2
2017-12-08T01:26:06.264Z,1003.23
2017-12-08T01:27:27.996Z,1003.24
2017-12-08T01:28:49.641Z,1003.2
2017-12-08T01:30:11.275Z,1003.17
2017-12-08T01:31:33.194Z,1003.2
2017-12-08T01:32:55.446Z,1003.11
2017-12-08T01:34:16.826Z,1003.16
2017-12-08T01:35:39.027Z,1003.2
2017-12-08T01:37:01.106Z,1003.22
2017-12-08T01:38:22.760Z,1003.29
2017-12-08T01:39:44.819Z,1003.24
2017-12-08T01:41:07.137Z,1003.25
2017-12-08T01:42:28.294Z,1003.26
2017-12-08T01:43:49.943Z,1003.22
2017-12-08T01:45:11.866Z,1003.26
2017-12-08T01:46:34.048Z,1003.24
2017-12-08T01:47:56.076Z,1003.22
2017-12-08T01:49:17.456Z,1003.22
2017-12-08T01:50:39.168Z,1003.18
2017-12-08T01:52:00.583Z,1003.16
2017-12-08T01:53:22.649Z,1003.18
2017-12-08T01:54:44.626Z,1003.14
2017-12-08T01:56:07.106Z,1003.14
2017-12-08T01:57:28.837Z,1003.11
2017-12-08T01:58:50.596Z,1003.14
2017-12-08T02:00:12.566Z,1003.11
2017-12-08T02:01:34.323Z,1003.18
2017-12-08T02:02:56.065Z,1003.2
2017-12-08T02:04:18.011Z,1003.19
2017-12-08T02:05:39.444Z,1003.13
2017-12-08T02:07:01.147Z,1003.2
2017-12-08T02:08:22.617Z,1003.19
2017-12-08T02:09:44.597Z,1003.24
2017-12-08T02:11:06.567Z,1003.25
2017-12-08T02:12:28.801Z,1003.23
2017-12-08T02:13:49.997Z,1003.27
2017-12-08T02:15:11.709Z,1003.29
2017-12-08T02:16:33.679Z,1003.26
2017-12-08T02:17:56.137Z,1003.17
2017-12-08T02:19:18.116Z,1003.23
2017-12-08T02:20:39.285Z,1003.17
2017-12-08T02:22:00.725Z,1003.19
2017-12-08T02:23:22.777Z,1003.19
2017-12-08T02:24:43.964Z,1003.21
2017-12-08T02:26:05.665Z,1003.22
2017-12-08T02:27:27.382Z,1003.22
2017-12-08T02:28:49.503Z,1003.28
2017-12-08T02:30:11.205Z,1003.22
2017-12-08T02:31:32.625Z,1003.23
2017-12-08T02:32:54.377Z,1003.28
2017-12-08T02:34:15.852Z,1003.29
2017-12-08T02:35:37.939Z,1003.32
2017-12-08T02:36:59.122Z,1003.25
2017-12-08T02:38:20.924Z,1003.26
2017-12-08T02:39:42.899Z,1003.24
2017-12-08T02:41:04.614Z,1003.26
2017-12-08T02:42:26.126Z,1003.31
2017-12-08T02:43:48.105Z,1003.34
2017-12-08T02:45:10.307Z,1003.33
2017-12-08T02:46:32.444Z,1003.34
2017-12-08T02:47:54.542Z,1003.31
2017-12-08T02:49:16.238Z,1003.32
2017-12-08T02:50:38.195Z,1003.34
2017-12-08T02:51:59.896Z,1003.35
2017-12-08T02:53:21.335Z,1003.33
2017-12-08T02:54:43.037Z,1003.41
2017-12-08T02:56:05.017Z,1003.33
2017-12-08T02:57:26.992Z,1003.4
2017-12-08T02:58:48.976Z,1003.3
2017-12-08T03:00:10.678Z,1003.38
2017-12-08T03:01:32.645Z,1003.4
2017-12-08T03:02:54.666Z,1003.39
2017-12-08T03:04:16.385Z,1003.4
2017-12-08T03:05:38.208Z,1003.35
2017-12-08T03:06:59.741Z,1003.38
2017-12-08T03:08:21.508Z,1003.25
2017-12-08T03:09:43.192Z,1003.26
2017-12-08T03:11:04.886Z,1003.28
2017-12-08T03:12:26.317Z,1003.26
2017-12-08T03:13:48.055Z,1003.21
2017-12-08T03:15:09.333Z,1003.19
2017-12-08T03:16:31.046Z,1003.18
2017-12-08T03:17:52.764Z,1003.16
2017-12-08T03:19:14.246Z,1003.19
2017-12-08T03:20:36.264Z,1003.15
2017-12-08T03:21:58.427Z,1003.19
2017-12-08T03:23:20.490Z,1003.18
2017-12-08T03:24:42.707Z,1003.18
2017-12-08T03:26:04.388Z,1003.21
2017-12-08T03:27:26.090Z,1003.2
2017-12-08T03:28:48.316Z,1003.12
2017-12-08T03:30:10.013Z,1003.17
2017-12-08T03:31:31.723Z,1003.13
2017-12-08T03:32:53.416Z,1003.16
2017-12-08T03:34:14.905Z,1003.15
2017-12-08T03:35:36.645Z,1003.2
2017-12-08T03:36:58.626Z,1003.21
2017-12-08T03:38:20.597Z,1003.27
2017-12-08T03:39:42.036Z,1003.22
2017-12-08T03:41:03.996Z,1003.24
2017-12-08T03:42:25.692Z,1003.24
2017-12-08T03:43:47.387Z,1003.24
2017-12-08T03:45:08.584Z,1003.28
2017-12-08T03:46:30.345Z,1003.2
2017-12-08T03:47:52.384Z,1003.29
2017-12-08T03:49:14.110Z,1003.3
2017-12-08T03:50:35.829Z,1003.31
2017-12-08T03:51:57.576Z,1003.32
2017-12-08T03:53:19.532Z,1003.36
2017-12-08T03:54:41.239Z,1003.28
2017-12-08T03:56:02.948Z,1003.25
2017-12-08T03:57:24.458Z,1003.25
2017-12-08T03:58:46.155Z,1003.26
2017-12-08T04:00:07.596Z,1003.25
2017-12-08T04:01:29.828Z,1003.25
2017-12-08T04:02:51.536Z,1003.21
2017-12-08T04:04:12.981Z,1003.24
2017-12-08T04:05:34.167Z,1003.19
2017-12-08T04:06:56.136Z,1003.25
2017-12-08T04:08:17.907Z,1003.23
2017-12-08T04:09:39.603Z,1003.2
2017-12-08T04:11:01.352Z,1003.19
2017-12-08T04:12:23.430Z,1003.22
2017-12-08T04:13:45.003Z,1003.13
2017-12-08T04:15:06.481Z,1003.11
2017-12-08T04:16:28.584Z,1003.05
2017-12-08T04:17:50.642Z,1003.07
2017-12-08T04:19:12.723Z,1003.1
2017-12-08T04:20:34.707Z,1003.07
2017-12-08T04:21:56.417Z,1003.07
2017-12-08T04:23:17.885Z,1003.1
2017-12-08T04:24:39.907Z,1003.11
2017-12-08T04:26:01.976Z,1003.16
2017-12-08T04:27:23.205Z,1003.14
2017-12-08T04:28:45.005Z,1003.12
2017-12-08T04:30:06.770Z,1003.17
2017-12-08T04:31:28.207Z,1003.17
2017-12-08T04:32:49.626Z,1003.15
2017-12-08T04:34:11.868Z,1003.17
2017-12-08T04:35:33.826Z,1003.24
2017-12-08T04:36:55.518Z,1003.29
2017-12-08T04:38:17.222Z,1003.26
2017-12-08T04:39:38.412Z,1003.33
2017-12-08T04:41:00.207Z,1003.31
2017-12-08T04:42:21.904Z,1003.27
2017-12-08T04:43:43.338Z,1003.3
2017-12-08T04:45:05.306Z,1003.23
2017-12-08T04:46:27.183Z,1003.26
2017-12-08T04:47:49.171Z,1003.18
2017-12-08T04:49:10.922Z,1003.23
2017-12-08T04:50:32.746Z,1003.22
2017-12-08T04:51:54.738Z,1003.2
2017-12-08T04:53:16.556Z,1003.18
2017-12-08T04:54:38.053Z,1003.16
2017-12-08T04:56:00.074Z,1003.23
2017-12-08T04:57:22.308Z,1003.18
2017-12-08T04:58:43.996Z,1003.19
2017-12-08T05:00:05.959Z,1003.15
2017-12-08T05:01:27.935Z,1003.18
2017-12-08T05:02:49.163Z,1003.18
2017-12-08T05:04:10.860Z,1003.15
2017-12-08T05:05:32.026Z,1003.16
2017-12-08T05:06:53.500Z,1003.1
2017-12-08T05:08:15.217Z,1003.13
2017-12-08T05:09:36.644Z,1003.13
2017-12-08T05:10:58.446Z,1003.15
2017-12-08T05:12:20.425Z,1003.09
2017-12-08T05:13:42.656Z,1003.06
2017-12-08T05:15:04.088Z,1003.08
2017-12-08T05:16:25.534Z,1003.11
2017-12-08T05:17:47.547Z,1003.13
2017-12-08T05:19:09.390Z,1003.08
2017-12-08T05:20:31.146Z,1003.11
2017-12-08T05:21:52.884Z,1003.12
2017-12-08T05:23:14.634Z,1003.09
2017-12-08T05:24:36.614Z,1003.16
2017-12-08T05:25:58.071Z,1003.07
2017-12-08T05:27:20.315Z,1003.08
2017-12-08T05:28:42.191Z,1003.08
2017-12-08T05:30:04.240Z,1003.09
2017-12-08T05:31:25.515Z,1003.16
2017-12-08T05:32:46.944Z,1003.13
2017-12-08T05:34:08.751Z,1003.17
2017-12-08T05:35:30.725Z,1003.17
2017-12-08T05:36:53.009Z,1003.17
2017-12-08T05:38:14.721Z,1003.12
2017-12-08T05:39:36.692Z,1003.15
2017-12-08T05:40:58.699Z,1003.15
2017-12-08T05:42:20.664Z,1003.11
2017-12-08T05:43:42.107Z,1003.1
2017-12-08T05:45:03.535Z,1003.18
2017-12-08T05:46:25.242Z,1003.14
2017-12-08T05:47:47.502Z,1003.23
2017-12-08T05:49:09.569Z,1003.26
2017-12-08T05:50:31.806Z,1003.34
2017-12-08T05:51:53.772Z,1003.32
2017-12-08T05:53:15.223Z,1003.31
2017-12-08T05:54:36.936Z,1003.41
2017-12-08T05:55:59.185Z,1003.44
2017-12-08T05:57:21.012Z,1003.43
2017-12-08T05:58:42.717Z,1003.42
2017-12-08T06:00:04.419Z,1003.43
2017-12-08T06:01:26.284Z,1003.41
2017-12-08T06:02:47.986Z,1003.43
2017-12-08T06:04:09.529Z,1003.42
2017-12-08T06:05:31.330Z,1003.42
2017-12-08T06:06:52.792Z,1003.43
2017-12-08T06:08:14.514Z,1003.32
2017-12-08T06:09:36.475Z,1003.42
2017-12-08T06:10:58.720Z,1003.38
2017-12-08T06:12:20.754Z,1003.39
2017-12-08T06:13:42.765Z,1003.42
2017-12-08T06:15:04.750Z,1003.4
2017-12-08T06:16:26.984Z,1003.43
2017-12-08T06:17:49.016Z,1003.4
2017-12-08T06:19:10.981Z,1003.41
2017-12-08T06:20:32.669Z,1003.42
2017-12-08T06:21:54.406Z,1003.43
2017-12-08T06:23:16.143Z,1003.49
2017-12-08T06:24:37.583Z,1003.52
2017-12-08T06:25:59.282Z,1003.54
2017-12-08T06:27:20.981Z,1003.54
2017-12-08T06:28:43.218Z,1003.61
2017-12-08T06:30:05.196Z,1003.56
2017-12-08T06:31:26.900Z,1003.57
2017-12-08T06:32:48.623Z,1003.54
2017-12-08T06:34:10.326Z,1003.48
2017-12-08T06:35:32.014Z,1003.5
2017-12-08T06:36:53.995Z,1003.45
2017-12-08T06:38:16.261Z,1003.41
2017-12-08T06:39:37.736Z,1003.36
2017-12-08T06:40:59.732Z,1003.45
2017-12-08T06:42:21.455Z,1003.53
2017-12-08T06:43:42.964Z,1003.58
2017-12-08T06:45:04.784Z,1003.53
2017-12-08T06:46:26.259Z,1003.58
2017-12-08T06:47:48.050Z,1003.51
2017-12-08T06:49:09.865Z,1003.51
2017-12-08T06:50:32.259Z,1003.55
2017-12-08T06:51:53.965Z,1003.53
2017-12-08T06:53:15.658Z,1003.61
2017-12-08T06:54:37.361Z,1003.55
2017-12-08T06:55:59.086Z,1003.42
2017-12-08T06:57:21.322Z,1003.54
2017-12-08T06:58:43.087Z,1003.52
2017-12-08T07:00:04.571Z,1003.53
2017-12-08T07:01:26.545Z,1003.61
2017-12-08T07:02:48.053Z,1003.57
2017-12-08T07:04:10.051Z,1003.55
2017-12-08T07:05:32.350Z,1003.55
2017-12-08T07:06:54.073Z,1003.56
2017-12-08T07:08:16.310Z,1003.58
2017-12-08T07:09:38.057Z,1003.57
2017-12-08T07:10:59.505Z,1003.61
2017-12-08T07:12:21.587Z,1003.64
2017-12-08T07:13:43.283Z,1003.65
2017-12-08T07:15:04.471Z,1003.65
2017-12-08T07:16:26.534Z,1003.63
2017-12-08T07:17:48.532Z,1003.67
2017-12-08T07:19:10.526Z,1003.69
2017-12-08T07:20:32.045Z,1003.68
2017-12-08T07:21:54.020Z,1003.69
2017-12-08T07:23:15.754Z,1003.71
2017-12-08T07:24:37.465Z,1003.68
2017-12-08T07:25:59.198Z,1003.68
2017-12-08T07:27:20.635Z,1003.72
2017-12-08T07:28:42.371Z,1003.71
2017-12-08T07:30:04.369Z,1003.67
2017-12-08T07:31:26.088Z,1003.7
2017-12-08T07:32:48.133Z,1003.71
2017-12-08T07:34:10.220Z,1003.72
2017-12-08T07:35:31.993Z,1003.69
2017-12-08T07:36:53.975Z,1003.63
2017-12-08T07:38:15.735Z,1003.65
2017-12-08T07:39:37.684Z,1003.57
2017-12-08T07:40:59.377Z,1003.56
2017-12-08T07:42:21.415Z,1003.55
2017-12-08T07:43:43.122Z,1003.57
2017-12-08T07:45:04.413Z,1003.61
2017-12-08T07:46:25.883Z,1003.56
2017-12-08T07:47:47.455Z,1003.58
2017-12-08T07:49:09.427Z,1003.54
2017-12-08T07:50:31.655Z,1003.6
2017-12-08T07:51:53.654Z,1003.59
2017-12-08T07:53:15.376Z,1003.62
2017-12-08T07:54:37.600Z,1003.65
2017-12-08T07:55:59.567Z,1003.64
2017-12-08T07:57:21.625Z,1003.67
2017-12-08T07:58:43.345Z,1003.68
2017-12-08T08:00:05.086Z,1003.65
2017-12-08T08:01:27.350Z,1003.67
2017-12-08T08:02:48.780Z,1003.65
2017-12-08T08:04:10.755Z,1003.62
2017-12-08T08:05:32.246Z,1003.66
2017-12-08T08:06:53.931Z,1003.71
2017-12-08T08:08:16.303Z,1003.59
2017-12-08T08:09:37.768Z,1003.75
2017-12-08T08:11:00.016Z,1003.77
2017-12-08T08:12:21.725Z,1003.77
2017-12-08T08:13:43.456Z,1003.74
2017-12-08T08:15:04.615Z,1003.71
2017-12-08T08:16:26.603Z,1003.69
2017-12-08T08:17:48.045Z,1003.8
2017-12-08T08:19:10.304Z,1003.78
2017-12-08T08:20:31.519Z,1003.78
2017-12-08T08:21:53.475Z,1003.81
2017-12-08T08:23:15.765Z,1003.82
2017-12-08T08:24:37.228Z,1003.8
2017-12-08T08:25:58.895Z,1003.86
2017-12-08T08:27:20.606Z,1003.84
2017-12-08T08:28:42.298Z,1003.89
2017-12-08T08:30:04.080Z,1003.89
2017-12-08T08:31:25.785Z,1003.93
2017-12-08T08:32:46.960Z,1003.95
2017-12-08T08:34:08.506Z,1003.94
2017-12-08T08:35:30.485Z,1003.95
2017-12-08T08:36:52.460Z,1003.98
2017-12-08T08:38:14.424Z,1004.01
2017-12-08T08:39:36.397Z,1004.01
2017-12-08T08:40:58.349Z,1003.98
2017-12-08T08:42:19.814Z,1004.01
2017-12-08T08:43:41.518Z,1003.93
2017-12-08T08:45:03.548Z,1004.04
2017-12-08T08:46:25.533Z,1004.01
2017-12-08T08:47:46.718Z,1003.98
2017-12-08T08:49:08.686Z,1003.96
2017-12-08T08:50:30.464Z,1003.95
2017-12-08T08:51:52.495Z,1004.05
2017-12-08T08:53:14.206Z,1004.06
2017-12-08T08:54:35.638Z,1004.1
2017-12-08T08:55:57.405Z,1004.09
2017-12-08T08:57:19.275Z,1004.07
2017-12-08T08:58:40.736Z,1004.08
2017-12-08T09:00:02.758Z,1004.1
2017-12-08T09:01:24.746Z,1004.16
2017-12-08T09:02:46.443Z,1004.1
2017-12-08T09:04:08.215Z,1004.13
2017-12-08T09:05:29.649Z,1004.09
2017-12-08T09:06:51.726Z,1004.13
2017-12-08T09:08:13.710Z,1004.15
2017-12-08T09:09:35.574Z,1004.19
2017-12-08T09:10:57.328Z,1004.09
2017-12-08T09:12:19.075Z,1004.09
2017-12-08T09:13:41.068Z,1004.05
2017-12-08T09:15:03.116Z,1004.06
2017-12-08T09:16:24.608Z,1004.11
2017-12-08T09:17:46.572Z,1004.18
2017-12-08T09:19:08.274Z,1004.13
2017-12-08T09:20:30.013Z,1004.17
2017-12-08T09:21:51.744Z,1004.1
2017-12-08T09:23:13.811Z,1004.12
2017-12-08T09:24:35.661Z,1004.14
2017-12-08T09:25:57.895Z,1004.24
2017-12-08T09:27:19.355Z,1004.14
2017-12-08T09:28:41.474Z,1004.15
2017-12-08T09:30:03.284Z,1004.22
2017-12-08T09:31:25.298Z,1004.25
2017-12-08T09:32:47.398Z,1004.22
2017-12-08T09:34:09.026Z,1004.24
2017-12-08T09:35:31.527Z,1004.26
2017-12-08T09:36:53.504Z,1004.23
2017-12-08T09:38:15.204Z,1004.22
2017-12-08T09:39:37.204Z,1004.25
2017-12-08T09:40:59.253Z,1004.22
2017-12-08T09:42:21.564Z,1004.29
2017-12-08T09:43:43.284Z,1004.29
2017-12-08T09:45:04.861Z,1004.23
2017-12-08T09:46:26.560Z,1004.26
2017-12-08T09:47:48.261Z,1004.22
2017-12-08T09:49:10.588Z,1004.21
2017-12-08T09:50:32.573Z,1004.27
2017-12-08T09:51:54.546Z,1004.28
2017-12-08T09:53:16.814Z,1004.21
2017-12-08T09:54:38.255Z,1004.1
2017-12-08T09:56:00.246Z,1004.17
2017-12-08T09:57:21.938Z,1004.03
2017-12-08T09:58:43.926Z,1004.08
2017-12-08T10:00:05.684Z,1004.03
2017-12-08T10:01:27.714Z,1004.12
2017-12-08T10:02:49.436Z,1004.09
2017-12-08T10:04:11.775Z,1004.06
2017-12-08T10:05:33.897Z,1004.05
2017-12-08T10:06:55.345Z,1004.05
2017-12-08T10:08:17.588Z,1004.07
2017-12-08T10:09:39.767Z,1003.99
2017-12-08T10:11:01.307Z,1003.97
2017-12-08T10:12:23.460Z,1004.05
2017-12-08T10:13:45.654Z,1004.03
2017-12-08T10:15:07.906Z,1004.07
2017-12-08T10:16:29.738Z,1004.04
2017-12-08T10:17:51.467Z,1004.01
2017-12-08T10:19:13.176Z,1004.03
2017-12-08T10:20:35.225Z,1004.05
2017-12-08T10:21:57.056Z,1004.05
2017-12-08T10:23:19.329Z,1004.08
2017-12-08T10:24:41.554Z,1004.02
2017-12-08T10:26:03.534Z,1003.96
2017-12-08T10:27:26.055Z,1003.96
2017-12-08T10:28:47.225Z,1003.97
2017-12-08T10:30:08.932Z,1003.96
2017-12-08T10:31:30.919Z,1003.93
2017-12-08T10:32:52.908Z,1003.97
2017-12-08T10:34:14.725Z,1003.94
2017-12-08T10:35:36.449Z,1003.96
2017-12-08T10:36:58.704Z,1003.86
2017-12-08T10:38:20.702Z,1003.99
2017-12-08T10:39:42.976Z,1003.91
2017-12-08T10:41:05.022Z,1003.89
2017-12-08T10:42:27.094Z,1003.94
2017-12-08T10:43:48.876Z,1003.92
2017-12-08T10:45:10.568Z,1003.93
2017-12-08T10:46:32.824Z,1003.94
2017-12-08T10:47:54.826Z,1003.92
2017-12-08T10:49:16.318Z,1003.98
2017-12-08T10:50:38.554Z,1003.87
2017-12-08T10:52:00.813Z,1003.94
2017-12-08T10:53:22.527Z,1003.89
2017-12-08T10:54:44.652Z,1003.88
2017-12-08T10:56:06.411Z,1003.84
2017-12-08T10:57:28.238Z,1003.9
2017-12-08T10:58:49.956Z,1003.91
2017-12-08T11:00:11.691Z,1003.92
2017-12-08T11:01:33.960Z,1003.89
2017-12-08T11:02:56.334Z,1003.92
2017-12-08T11:04:18.134Z,1003.91
2017-12-08T11:05:39.875Z,1003.97
2017-12-08T11:07:02.135Z,1003.88
2017-12-08T11:08:24.375Z,1003.91
2017-12-08T11:09:46.112Z,1003.87
2017-12-08T11:11:08.464Z,1003.9
2017-12-08T11:12:30.699Z,1003.94
2017-12-08T11:13:52.396Z,1003.95
2017-12-08T11:15:14.432Z,1003.92
2017-12-08T11:16:36.146Z,1003.92
2017-12-08T11:17:58.195Z,1003.9
2017-12-08T11:19:20.173Z,1003.85
2017-12-08T11:20:41.615Z,1003.92
2017-12-08T11:22:03.852Z,1003.92
2017-12-08T11:23:25.929Z,1004
2017-12-08T11:24:47.914Z,1003.91
2017-12-08T11:26:09.614Z,1003.95
2017-12-08T11:27:31.455Z,1003.97
2017-12-08T11:28:53.445Z,1004.03
2017-12-08T11:30:15.717Z,1004.03
2017-12-08T11:31:37.157Z,1004.17
2017-12-08T11:32:59.141Z,1004.07
2017-12-08T11:34:21.105Z,1004.07
2017-12-08T11:35:42.799Z,1004.13
2017-12-08T11:37:04.011Z,1004.08
2017-12-08T11:38:25.444Z,1004.13
2017-12-08T11:39:47.254Z,1004.2
2017-12-08T11:41:09.515Z,1004.14
2017-12-08T11:42:31.483Z,1004.12
2017-12-08T11:43:53.503Z,1004.21
2017-12-08T11:45:15.787Z,1004.15
2017-12-08T11:46:37.222Z,1004.19
2017-12-08T11:47:59.195Z,1004.23
2017-12-08T11:49:21.185Z,1004.13
2017-12-08T11:50:42.896Z,1004.15
2017-12-08T11:52:04.866Z,1004.12
2017-12-08T11:53:26.855Z,1004.21
2017-12-08T11:54:48.826Z,1004.16
2017-12-08T11:56:10.555Z,1004.13
2017-12-08T11:57:32.023Z,1004.15
2017-12-08T11:58:54.281Z,1004.22
2017-12-08T12:00:16.315Z,1004.19
2017-12-08T12:01:38.462Z,1004.23
2017-12-08T12:03:00.723Z,1004.25
2017-12-08T12:04:22.422Z,1004.2
2017-12-08T12:05:43.590Z,1004.25
2017-12-08T12:07:05.583Z,1004.23
2017-12-08T12:08:27.354Z,1004.2
2017-12-08T12:09:49.638Z,1004.2
2017-12-08T12:11:11.615Z,1004.18
2017-12-08T12:12:33.924Z,1004.22
2017-12-08T12:13:55.354Z,1004.21
2017-12-08T12:15:17.110Z,1004.21
2017-12-08T12:16:38.555Z,1004.17
2017-12-08T12:18:00.380Z,1004.24
2017-12-08T12:19:21.556Z,1004.3
2017-12-08T12:20:43.808Z,1004.32
2017-12-08T12:22:05.521Z,1004.32
2017-12-08T12:23:27.521Z,1004.36
2017-12-08T12:24:49.245Z,1004.37
2017-12-08T12:26:10.952Z,1004.36
2017-12-08T12:27:33.207Z,1004.36
2017-12-08T12:28:55.053Z,1004.43
2017-12-08T12:30:16.506Z,1004.43
2017-12-08T12:31:38.184Z,1004.43
2017-12-08T12:32:59.865Z,1004.42
2017-12-08T12:34:21.333Z,1004.41
2017-12-08T12:35:43.042Z,1004.36
2017-12-08T12:37:05.081Z,1004.36
2017-12-08T12:38:27.132Z,1004.32
2017-12-08T12:39:48.852Z,1004.25
2017-12-08T12:41:10.893Z,1004.21
2017-12-08T12:42:32.341Z,1004.14
2017-12-08T12:43:54.566Z,1004.1
2017-12-08T12:45:16.102Z,1004.07
2017-12-08T12:46:38.088Z,1003.8
2017-12-08T12:48:00.385Z,1003.63
2017-12-08T12:49:22.086Z,1003.7
2017-12-08T12:50:44.353Z,1003.81
2017-12-08T12:52:05.799Z,1003.83
2017-12-08T12:53:27.765Z,1003.89
2017-12-08T12:54:49.764Z,1004.02
2017-12-08T12:56:11.724Z,1004.08
2017-12-08T12:57:33.486Z,1004.13
2017-12-08T12:58:55.745Z,1004.09
2017-12-08T13:00:17.715Z,1004.02
2017-12-08T13:01:39.744Z,1004.07
2017-12-08T13:03:01.200Z,1004.11
2017-12-08T13:04:23.244Z,1004.1
2017-12-08T13:05:45.302Z,1004.1
2017-12-08T13:07:06.755Z,1004.12
2017-12-08T13:08:28.787Z,1004.08
2017-12-08T13:09:50.807Z,1004.14
2017-12-08T13:11:12.724Z,1004.12
2017-12-08T13:12:35.352Z,1004.2
2017-12-08T13:13:57.319Z,1004.22
2017-12-08T13:15:19.383Z,1004.22
2017-12-08T13:16:41.645Z,1004.26
2017-12-08T13:18:03.456Z,1004.25
2017-12-08T13:19:25.446Z,1004.36
2017-12-08T13:20:47.225Z,1004.31
2017-12-08T13:22:09.294Z,1004.37
2017-12-08T13:23:31.337Z,1004.37
2017-12-08T13:24:53.684Z,1004.37
2017-12-08T13:26:15.742Z,1004.39
2017-12-08T13:27:37.998Z,1004.43
2017-12-08T13:29:00.100Z,1004.53
2017-12-08T13:30:21.867Z,1004.6
2017-12-08T13:31:43.320Z,1004.7
2017-12-08T13:33:05.345Z,1004.85
2017-12-08T13:34:27.418Z,1004.87
2017-12-08T13:35:49.195Z,1004.97
2017-12-08T13:37:10.942Z,1005
2017-12-08T13:38:32.132Z,1005
2017-12-08T13:39:53.896Z,1005.01
2017-12-08T13:41:15.892Z,1005.04
2017-12-08T13:42:38.205Z,1005.12
2017-12-08T13:44:00.206Z,1005.16
2017-12-08T13:45:22.274Z,1005.18
2017-12-08T13:46:43.988Z,1005.23
2017-12-08T13:48:05.803Z,1005.2
2017-12-08T13:49:28.033Z,1005.26
2017-12-08T13:50:49.753Z,1005.3
2017-12-08T13:52:12.062Z,1005.35
2017-12-08T13:53:34.059Z,1005.34
2017-12-08T13:54:56.036Z,1005.36
2017-12-08T13:56:18.086Z,1005.3
2017-12-08T13:57:39.793Z,1005.29
2017-12-08T13:59:02.041Z,1005.32
2017-12-08T14:00:24.014Z,1005.36
2017-12-08T14:01:46.102Z,1005.34
2017-12-08T14:03:08.095Z,1005.19
2017-12-08T14:04:30.233Z,1005.14
2017-12-08T14:05:51.944Z,1004.78
2017-12-08T14:07:13.950Z,1004.49
2017-12-08T14:08:36.204Z,1004.46
2017-12-08T14:09:58.757Z,1004.4
2017-12-08T14:11:20.560Z,1004.47
2017-12-08T14:12:42.347Z,1004.62
2017-12-08T14:14:04.645Z,1004.62
2017-12-08T14:15:26.339Z,1004.67
2017-12-08T14:16:47.982Z,1004.73
2017-12-08T14:18:09.466Z,1004.8
2017-12-08T14:19:31.191Z,1004.78
2017-12-08T14:20:53.052Z,1004.78
2017-12-08T14:22:15.104Z,1004.82
2017-12-08T14:23:36.870Z,1004.78
2017-12-08T14:24:58.888Z,1004.73
2017-12-08T14:26:20.873Z,1004.77
2017-12-08T14:27:42.850Z,1004.75
2017-12-08T14:29:04.635Z,1004.75
2017-12-08T14:30:26.892Z,1004.73
2017-12-08T14:31:48.943Z,1004.76
2017-12-08T14:33:10.970Z,1004.75
2017-12-08T14:34:33.057Z,1004.74
2017-12-08T14:35:54.858Z,1004.77
2017-12-08T14:37:17.113Z,1004.79
2017-12-08T14:38:38.844Z,1004.82
2017-12-08T14:40:00.554Z,1004.8
2017-12-08T14:41:22.544Z,1004.83
2017-12-08T14:42:44.787Z,1004.82
2017-12-08T14:44:06.818Z,1004.85
2017-12-08T14:45:28.806Z,1004.83
2017-12-08T14:46:50.540Z,1004.82
2017-12-08T14:48:12.295Z,1004.78
2017-12-08T14:49:34.573Z,1004.78
2017-12-08T14:50:56.939Z,1004.8
2017-12-08T14:52:19.202Z,1004.84
2017-12-08T14:53:40.669Z,1004.82
2017-12-08T14:55:02.717Z,1004.83
2017-12-08T14:56:24.863Z,1004.82
2017-12-08T14:57:47.134Z,1004.81
2017-12-08T14:59:09.126Z,1004.85
2017-12-08T15:00:31.387Z,1004.86
2017-12-08T15:01:52.857Z,1004.86
2017-12-08T15:03:15.134Z,1004.86
2017-12-08T15:04:37.215Z,1004.86
2017-12-08T15:05:58.728Z,1004.92
2017-12-08T15:07:20.866Z,1004.87
2017-12-08T15:08:43.252Z,1004.94
2017-12-08T15:10:04.975Z,1004.97
2017-12-08T15:11:27.365Z,1004.92
2017-12-08T15:12:49.420Z,1004.87
2017-12-08T15:14:11.782Z,1004.87
2017-12-08T15:15:33.908Z,1004.91
2017-12-08T15:16:55.896Z,1004.86
2017-12-08T15:18:18.149Z,1004.91
2017-12-08T15:19:39.965Z,1004.9
2017-12-08T15:21:02.039Z,1004.91
2017-12-08T15:22:24.042Z,1004.92
2017-12-08T15:23:46.066Z,1004.9
2017-12-08T15:25:08.416Z,1005.01
2017-12-08T15:26:30.666Z,1004.98
2017-12-08T15:27:52.876Z,1004.98
2017-12-08T15:29:14.588Z,1005.03
2017-12-08T15:30:36.905Z,1005.07
2017-12-08T15:31:58.652Z,1005.09
2017-12-08T15:33:20.915Z,1005.04
2017-12-08T15:34:42.899Z,1005.03
2017-12-08T15:36:04.983Z,1005.06
2017-12-08T15:37:27.236Z,1004.99
2017-12-08T15:38:49.527Z,1005.01
2017-12-08T15:40:11.557Z,1004.98
2017-12-08T15:41:33.307Z,1004.97
2017-12-08T15:42:55.675Z,1004.98
2017-12-08T15:44:17.654Z,1004.99
2017-12-08T15:45:39.742Z,1004.99
2017-12-08T15:47:01.230Z,1004.98
2017-12-08T15:48:23.264Z,1004.99
2017-12-08T15:49:45.249Z,1005.01
2017-12-08T15:51:07.586Z,1005.03
2017-12-08T15:52:29.574Z,1005.04
2017-12-08T15:53:51.287Z,1005.06
2017-12-08T15:55:13.027Z,1005.09
2017-12-08T15:56:35.597Z,1005.07
2017-12-08T15:57:57.577Z,1005.02
2017-12-08T15:59:19.291Z,1005.03
2017-12-08T16:00:41.014Z,1005.1
2017-12-08T16:02:03.380Z,1005.12
2017-12-08T16:03:25.404Z,1005.13
2017-12-08T16:04:47.407Z,1005.1
2017-12-08T16:06:09.685Z,1005.07
2017-12-08T16:07:31.681Z,1005.11
2017-12-08T16:08:53.408Z,1005.12
2017-12-08T16:10:15.775Z,1005.12
2017-12-08T16:11:37.735Z,1005.18
2017-12-08T16:12:59.699Z,1005.12
2017-12-08T16:14:22.078Z,1005.15
2017-12-08T16:15:43.820Z,1005.15
2017-12-08T16:17:06.075Z,1005.15
2017-12-08T16:18:27.818Z,1005.16
2017-12-08T16:19:49.951Z,1005.12
2017-12-08T16:21:11.828Z,1005.11
2017-12-08T16:22:33.817Z,1005.19
2017-12-08T16:23:56.071Z,1005.1
2017-12-08T16:25:17.768Z,1005.15
2017-12-08T16:26:39.782Z,1005.16
2017-12-08T16:28:01.784Z,1005.2
2017-12-08T16:29:23.527Z,1005.16
2017-12-08T16:30:45.229Z,1005.19
2017-12-08T16:32:07.025Z,1005.17
2017-12-08T16:33:28.717Z,1005.23